CheckWX is a tool to help pilots better visualize weather data.  It is not intended as a substitute for an official pre-flight weather briefing.

08:13:42 UTC

KCLE TAF
Cleveland-Hopkins International Airport
Cleveland, Ohio, USA
KCLE 150539Z 1506/1612 19004KT P6SM SKC FM151500 22007KT P6SM SCT150 FM160200 20006KT P6SM BKN060 FM161100 23004KT P6SM BKN025

Sep-15@
06:00 UTC

Sep-15 @ 06:00 UTC

Sep-15@
15:00 UTC

Sep-15 @ 15:00 UTC

KCLE 150539Z 1506/1612 19004KT P6SM SKC
Wind
  • 190° at 4 KTS
Cloud Levels
  • Clear skies

Sep-15@
15:00 UTC

Sep-15 @ 15:00 UTC

Sep-16@
02:00 UTC

Sep-16 @ 02:00 UTC

FM151500 22007KT P6SM SCT150

From

From Standard forecast or significant change

Wind
  • 220° at 7 KTS
Cloud Levels
  • Scattered at 15,000' AGL

Sep-16@
02:00 UTC

Sep-16 @ 02:00 UTC

Sep-16@
11:00 UTC

Sep-16 @ 11:00 UTC

FM160200 20006KT P6SM BKN060

From

From Standard forecast or significant change

Wind
  • 200° at 6 KTS
Cloud Levels
  • Broken at 6,000' AGL

Sep-16@
11:00 UTC

Sep-16 @ 11:00 UTC

Sep-16@
12:00 UTC

Sep-16 @ 12:00 UTC

FM161100 23004KT P6SM BKN025

From

From Standard forecast or significant change

Wind
  • 230° at 4 KTS
Cloud Levels
  • Broken at 2,500' AGL